createdAt,value
2019-05-25T00:00:13.690Z,10.20
2019-05-25T00:02:42.688Z,10.20
2019-05-25T00:05:11.391Z,10.20
2019-05-25T00:07:40.077Z,10.20
2019-05-25T00:10:09.047Z,10.20
2019-05-25T00:12:37.649Z,10.20
2019-05-25T00:15:07.272Z,10.20
2019-05-25T00:17:35.944Z,10.10
2019-05-25T00:20:05.644Z,10.10
2019-05-25T00:22:34.324Z,10.10
2019-05-25T00:25:02.915Z,10.10
2019-05-25T00:27:31.801Z,10.10
2019-05-25T00:30:00.449Z,10.10
2019-05-25T00:32:29.127Z,10.20
2019-05-25T00:34:57.699Z,10.30
2019-05-25T00:37:26.279Z,10.40
2019-05-25T00:39:54.967Z,10.40
2019-05-25T00:42:23.571Z,10.50
2019-05-25T00:44:52.313Z,10.60
2019-05-25T00:47:27.369Z,10.70
2019-05-25T00:49:56.015Z,10.70
2019-05-25T00:52:24.654Z,10.80
2019-05-25T00:54:53.343Z,10.80
2019-05-25T00:57:21.904Z,10.90
2019-05-25T00:59:50.502Z,10.90
2019-05-25T01:02:19.492Z,10.90
2019-05-25T01:04:48.101Z,10.90
2019-05-25T01:07:16.673Z,10.90
2019-05-25T01:09:45.279Z,10.90
2019-05-25T01:12:14.180Z,10.80
2019-05-25T01:14:42.844Z,10.80
2019-05-25T01:17:11.429Z,10.70
2019-05-25T01:19:40.044Z,10.70
2019-05-25T01:22:08.915Z,10.60
2019-05-25T01:24:44.480Z,10.60
2019-05-25T01:27:08.160Z,10.60
2019-05-25T01:29:36.757Z,10.50
2019-05-25T01:32:05.337Z,10.50
2019-05-25T01:34:34.314Z,10.40
2019-05-25T01:37:02.902Z,10.40
2019-05-25T01:39:31.468Z,10.40
2019-05-25T01:42:00.126Z,10.30
2019-05-25T01:44:28.707Z,10.30
2019-05-25T01:46:57.296Z,10.30
2019-05-25T01:49:25.909Z,10.20
2019-05-25T01:51:54.474Z,10.20
2019-05-25T01:54:23.045Z,10.20
2019-05-25T01:56:51.611Z,10.20
2019-05-25T01:59:20.489Z,10.20
2019-05-25T02:01:49.147Z,10.20
2019-05-25T02:04:17.737Z,10.20
2019-05-25T02:06:46.768Z,10.20
2019-05-25T02:09:15.341Z,10.20
2019-05-25T02:11:43.954Z,10.20
2019-05-25T02:14:12.520Z,10.10
2019-05-25T02:16:41.184Z,10.20
2019-05-25T02:19:09.749Z,10.10
2019-05-25T02:21:38.622Z,10.10
2019-05-25T02:24:07.269Z,10.10
2019-05-25T02:26:35.922Z,10.10
2019-05-25T02:29:04.749Z,10.00
2019-05-25T02:31:33.337Z,10.00
2019-05-25T02:34:01.995Z,10.00
2019-05-25T02:36:30.583Z,9.90
2019-05-25T02:38:59.174Z,9.90
2019-05-25T02:41:28.229Z,10.00
2019-05-25T02:43:56.871Z,10.00
2019-05-25T02:46:25.452Z,9.90
2019-05-25T02:48:54.045Z,10.00
2019-05-25T02:51:22.668Z,10.00
2019-05-25T02:53:51.389Z,10.00
2019-05-25T02:56:19.985Z,10.00
2019-05-25T02:58:48.957Z,10.10
2019-05-25T03:01:17.550Z,10.10
2019-05-25T03:03:46.209Z,10.20
2019-05-25T03:06:15.599Z,10.20
2019-05-25T03:08:45.460Z,10.30
2019-05-25T03:11:14.096Z,10.40
2019-05-25T03:13:42.845Z,10.40
2019-05-25T03:16:11.423Z,10.50
2019-05-25T03:18:40.095Z,10.50
2019-05-25T03:21:08.670Z,10.50
2019-05-25T03:23:37.327Z,10.60
2019-05-25T03:26:05.933Z,10.60
2019-05-25T03:28:34.597Z,10.50
2019-05-25T03:31:03.186Z,10.60
2019-05-25T03:33:31.775Z,10.60
2019-05-25T03:36:00.419Z,10.60
2019-05-25T03:38:29.033Z,10.60
2019-05-25T03:40:57.920Z,10.70
2019-05-25T03:43:26.508Z,10.70
2019-05-25T03:45:55.083Z,10.70
2019-05-25T03:48:23.709Z,10.80
2019-05-25T03:50:52.338Z,10.80
2019-05-25T03:53:21.197Z,10.90
2019-05-25T03:56:04.681Z,10.90
2019-05-25T03:58:20.498Z,10.90
2019-05-25T04:00:49.495Z,11.00
2019-05-25T04:03:18.482Z,11.00
2019-05-25T04:05:47.152Z,11.10
2019-05-25T04:08:15.728Z,11.10
2019-05-25T04:10:44.328Z,11.20
2019-05-25T04:13:12.893Z,11.30
2019-05-25T04:15:41.481Z,11.30
2019-05-25T04:18:10.137Z,11.30
2019-05-25T04:20:38.735Z,11.40
2019-05-25T04:23:07.389Z,11.40
2019-05-25T04:25:36.303Z,11.40
2019-05-25T04:28:05.002Z,11.50
2019-05-25T04:30:33.576Z,11.50
2019-05-25T04:33:02.250Z,11.60
2019-05-25T04:35:30.840Z,11.60
2019-05-25T04:37:59.499Z,11.70
2019-05-25T04:40:28.081Z,11.70
2019-05-25T04:42:56.836Z,11.80
2019-05-25T04:45:25.747Z,11.80
2019-05-25T04:47:54.344Z,11.80
2019-05-25T04:50:22.993Z,11.90
2019-05-25T04:52:51.576Z,12.00
2019-05-25T04:55:20.569Z,12.00
2019-05-25T04:57:49.240Z,12.00
2019-05-25T05:00:17.968Z,12.10
2019-05-25T05:02:46.613Z,12.10
2019-05-25T05:05:15.362Z,12.10
2019-05-25T05:07:43.932Z,12.20
2019-05-25T05:10:12.657Z,12.20
2019-05-25T05:12:41.241Z,12.30
2019-05-25T05:15:10.398Z,12.40
2019-05-25T05:17:38.992Z,12.40
2019-05-25T05:20:09.121Z,12.40
2019-05-25T05:22:37.788Z,12.50
2019-05-25T05:25:08.139Z,12.60
2019-05-25T05:27:37.330Z,12.60
2019-05-25T05:30:08.354Z,12.80
2019-05-25T05:32:37.062Z,12.80
2019-05-25T05:35:09.348Z,12.90
2019-05-25T05:37:39.834Z,13.00
2019-05-25T05:40:09.454Z,13.10
2019-05-25T05:42:39.752Z,13.20
2019-05-25T05:45:09.183Z,13.30
2019-05-25T05:47:37.894Z,13.30
2019-05-25T05:50:08.358Z,13.40
2019-05-25T05:52:40.257Z,13.40
2019-05-25T05:55:10.981Z,13.50
2019-05-25T05:57:39.643Z,13.60
2019-05-25T06:00:10.442Z,13.60
2019-05-25T06:02:39.050Z,13.70
2019-05-25T06:05:08.472Z,13.80
2019-05-25T06:07:37.129Z,13.90
2019-05-25T06:10:07.235Z,14.00
2019-05-25T06:12:35.829Z,14.10
2019-05-25T06:15:07.015Z,14.20
2019-05-25T06:17:35.622Z,14.20
2019-05-25T06:20:06.428Z,14.30
2019-05-25T06:22:35.118Z,14.30
2019-05-25T06:25:05.311Z,14.30
2019-05-25T06:27:34.359Z,14.30
2019-05-25T06:30:03.454Z,14.30
2019-05-25T06:32:32.346Z,14.30
2019-05-25T06:35:00.997Z,14.30
2019-05-25T06:37:29.565Z,14.30
2019-05-25T06:39:58.155Z,14.40
2019-05-25T06:42:26.759Z,14.40
2019-05-25T06:44:55.321Z,14.40
2019-05-25T06:47:24.285Z,14.50
2019-05-25T06:49:52.866Z,14.60
2019-05-25T06:52:21.520Z,14.70
2019-05-25T06:54:50.114Z,14.80
2019-05-25T06:57:18.678Z,15.00
2019-05-25T06:59:47.346Z,15.20
2019-05-25T07:02:15.914Z,15.40
2019-05-25T07:04:44.496Z,15.60
2019-05-25T07:07:13.132Z,15.70
2019-05-25T07:09:41.815Z,15.90
2019-05-25T07:12:10.470Z,16.10
2019-05-25T07:14:39.048Z,16.30
2019-05-25T07:17:08.062Z,16.40
2019-05-25T07:19:36.643Z,16.50
2019-05-25T07:22:05.385Z,16.60
2019-05-25T07:24:33.956Z,16.70
2019-05-25T07:27:02.584Z,16.80
2019-05-25T07:29:31.215Z,17.00
2019-05-25T07:31:59.936Z,17.10
2019-05-25T07:34:28.506Z,17.10
2019-05-25T07:36:57.140Z,17.10
2019-05-25T07:39:26.079Z,17.20
2019-05-25T07:41:54.713Z,17.10
2019-05-25T07:44:23.337Z,17.20
2019-05-25T07:46:51.927Z,17.30
2019-05-25T07:49:20.513Z,17.30
2019-05-25T07:51:49.132Z,17.50
2019-05-25T07:54:17.792Z,17.50
2019-05-25T07:56:46.371Z,17.50
2019-05-25T07:59:15.024Z,17.60
2019-05-25T08:01:43.554Z,17.80
2019-05-25T08:04:12.107Z,17.80
2019-05-25T08:06:40.683Z,18.00
2019-05-25T08:09:09.395Z,18.30
2019-05-25T08:11:38.003Z,18.50
2019-05-25T08:14:07.018Z,18.70
2019-05-25T08:16:35.915Z,18.90
2019-05-25T08:19:04.644Z,19.10
2019-05-25T08:21:33.234Z,19.10
2019-05-25T08:24:01.794Z,19.30
2019-05-25T08:26:30.652Z,19.40
2019-05-25T08:28:59.747Z,19.50
2019-05-25T08:31:28.631Z,19.60
2019-05-25T08:33:57.681Z,19.80
2019-05-25T08:36:29.560Z,19.80
2019-05-25T08:38:56.685Z,19.80
2019-05-25T08:41:25.676Z,20.00
2019-05-25T08:43:55.172Z,20.00
2019-05-25T08:46:23.749Z,20.20
2019-05-25T08:48:52.324Z,20.40
2019-05-25T08:51:20.960Z,20.70
2019-05-25T08:53:49.618Z,20.70
2019-05-25T08:56:18.187Z,20.80
2019-05-25T08:58:48.687Z,20.90
2019-05-25T09:01:16.983Z,21.10
2019-05-25T09:03:45.576Z,21.30
2019-05-25T09:06:14.513Z,21.50
2019-05-25T09:08:43.402Z,21.80
2019-05-25T09:11:12.046Z,21.90
2019-05-25T09:13:40.628Z,22.10
2019-05-25T09:16:09.183Z,22.10
2019-05-25T09:18:37.834Z,22.10
2019-05-25T09:21:06.851Z,22.20
2019-05-25T09:23:35.773Z,21.90
2019-05-25T09:26:04.569Z,22.10
2019-05-25T09:28:33.157Z,22.00
2019-05-25T09:31:01.769Z,22.10
2019-05-25T09:33:30.408Z,22.10
2019-05-25T09:35:58.985Z,22.00
2019-05-25T09:38:27.582Z,22.10
2019-05-25T09:40:56.171Z,22.00
2019-05-25T09:43:24.786Z,22.00
2019-05-25T09:45:53.876Z,21.70
2019-05-25T09:48:22.522Z,21.40
2019-05-25T09:50:51.197Z,21.50
2019-05-25T09:53:19.849Z,21.50
2019-05-25T09:55:48.441Z,21.30
2019-05-25T09:58:17.090Z,21.10
2019-05-25T10:00:45.764Z,21.30
2019-05-25T10:03:14.336Z,21.60
2019-05-25T10:05:42.973Z,21.50
2019-05-25T10:08:11.622Z,21.40
2019-05-25T10:10:40.219Z,21.60
2019-05-25T10:13:08.872Z,21.80
2019-05-25T10:15:37.454Z,22.30
2019-05-25T10:18:06.027Z,22.80
2019-05-25T10:20:34.615Z,23.00
2019-05-25T10:23:03.244Z,23.10
2019-05-25T10:25:31.879Z,23.10
2019-05-25T10:28:22.521Z,23.00
2019-05-25T10:30:57.525Z,23.20
2019-05-25T10:33:26.481Z,23.30
2019-05-25T10:35:55.151Z,23.50
2019-05-25T10:38:24.283Z,23.60
2019-05-25T10:40:52.869Z,23.70
2019-05-25T10:43:21.562Z,23.40
2019-05-25T10:45:50.211Z,23.50
2019-05-25T10:48:18.861Z,23.30
2019-05-25T10:50:47.661Z,23.60
2019-05-25T10:53:16.426Z,23.60
2019-05-25T10:55:45.177Z,23.60
2019-05-25T10:58:15.394Z,23.70
2019-05-25T11:00:44.089Z,23.80
2019-05-25T11:03:12.727Z,23.80
2019-05-25T11:05:41.342Z,23.70
2019-05-25T11:08:10.520Z,23.60
2019-05-25T11:10:41.296Z,23.60
2019-05-25T11:13:11.615Z,23.80
2019-05-25T11:15:40.608Z,23.80
2019-05-25T11:18:09.636Z,24.00
2019-05-25T11:20:39.394Z,24.10
2019-05-25T11:23:11.583Z,24.10
2019-05-25T11:25:40.260Z,24.20
2019-05-25T11:28:08.912Z,24.30
2019-05-25T11:30:37.505Z,24.40
2019-05-25T11:33:06.124Z,24.40
2019-05-25T11:35:34.876Z,24.60
2019-05-25T11:38:03.530Z,24.70
2019-05-25T11:40:32.124Z,24.80
2019-05-25T11:43:00.701Z,25.20
2019-05-25T11:45:29.398Z,25.20
2019-05-25T11:47:57.902Z,25.00
2019-05-25T11:50:26.549Z,25.00
2019-05-25T11:52:55.242Z,24.90
2019-05-25T11:55:23.938Z,24.80
2019-05-25T11:57:52.566Z,25.00
2019-05-25T12:00:25.570Z,25.20
2019-05-25T12:02:54.062Z,25.30
2019-05-25T12:05:22.699Z,25.20
2019-05-25T12:07:51.350Z,25.20
2019-05-25T12:10:20.454Z,25.20
2019-05-25T12:12:49.014Z,25.10
2019-05-25T12:15:17.813Z,25.10
2019-05-25T12:17:46.469Z,25.10
2019-05-25T12:20:15.671Z,24.90
2019-05-25T12:22:44.261Z,25.00
2019-05-25T12:25:13.461Z,25.10
2019-05-25T12:27:42.516Z,25.00
2019-05-25T12:30:11.829Z,24.80
2019-05-25T12:32:40.503Z,24.90
2019-05-25T12:35:09.839Z,24.80
2019-05-25T12:37:38.420Z,24.80
2019-05-25T12:40:08.534Z,25.10
2019-05-25T12:42:37.196Z,25.50
2019-05-25T12:45:07.003Z,26.20
2019-05-25T12:47:37.157Z,26.50
2019-05-25T12:50:08.786Z,26.70
2019-05-25T12:52:37.434Z,27.00
2019-05-25T12:55:06.905Z,27.10
2019-05-25T12:57:35.709Z,27.20
2019-05-25T13:00:15.653Z,27.30
2019-05-25T13:02:37.095Z,27.40
2019-05-25T13:05:06.145Z,27.40
2019-05-25T13:07:34.883Z,27.30
2019-05-25T13:10:05.242Z,27.10
2019-05-25T13:12:35.354Z,26.90
2019-05-25T13:15:06.440Z,26.90
2019-05-25T13:17:35.260Z,26.70
2019-05-25T13:20:05.763Z,26.80
2019-05-25T13:22:34.314Z,26.90
2019-05-25T13:25:04.735Z,26.90
2019-05-25T13:27:33.299Z,27.00
2019-05-25T13:30:03.343Z,27.00
2019-05-25T13:32:32.238Z,26.80
2019-05-25T13:35:01.202Z,27.10
2019-05-25T13:37:29.771Z,27.40
2019-05-25T13:39:58.333Z,27.80
2019-05-25T13:42:26.921Z,27.90
2019-05-25T13:44:55.791Z,28.30
2019-05-25T13:47:24.521Z,28.60
2019-05-25T13:49:53.018Z,28.80
2019-05-25T13:52:21.669Z,29.60
2019-05-25T13:54:50.234Z,31.00
2019-05-25T13:57:22.051Z,32.70
2019-05-25T13:59:50.594Z,34.10
2019-05-25T14:02:19.267Z,35.40
2019-05-25T14:04:47.989Z,36.10
2019-05-25T14:07:16.640Z,37.10
2019-05-25T14:09:45.353Z,38.50
2019-05-25T14:12:13.950Z,39.20
2019-05-25T14:14:42.622Z,39.90
2019-05-25T14:17:11.275Z,40.60
2019-05-25T14:19:41.474Z,41.50
2019-05-25T14:22:10.076Z,41.30
2019-05-25T14:24:38.678Z,41.50
2019-05-25T14:27:07.739Z,41.90
2019-05-25T14:29:36.368Z,42.10
2019-05-25T14:32:05.081Z,41.80
2019-05-25T14:34:33.726Z,41.00
2019-05-25T14:37:02.292Z,40.40
2019-05-25T14:39:30.941Z,41.50
2019-05-25T14:41:59.516Z,42.20
2019-05-25T14:44:28.106Z,42.20
2019-05-25T14:46:56.779Z,43.10
2019-05-25T14:49:25.834Z,43.50
2019-05-25T14:51:54.488Z,43.20
2019-05-25T14:54:23.092Z,43.90
2019-05-25T14:56:51.585Z,44.30
2019-05-25T14:59:20.119Z,44.60
2019-05-25T15:02:01.336Z,45.00
2019-05-25T15:04:18.969Z,45.10
2019-05-25T15:06:47.571Z,44.10
2019-05-25T15:09:16.198Z,43.70
2019-05-25T15:11:44.784Z,43.60
2019-05-25T15:14:13.395Z,44.30
2019-05-25T15:16:42.093Z,44.70
2019-05-25T15:19:11.079Z,44.70
2019-05-25T15:21:39.750Z,45.10
2019-05-25T15:24:08.411Z,45.10
2019-05-25T15:26:37.182Z,45.10
2019-05-25T15:29:05.812Z,44.60
2019-05-25T15:31:34.547Z,44.70
2019-05-25T15:34:03.385Z,44.80
2019-05-25T15:36:31.939Z,45.10
2019-05-25T15:39:00.594Z,45.50
2019-05-25T15:41:29.175Z,45.20
2019-05-25T15:43:57.770Z,45.40
2019-05-25T15:46:26.342Z,45.50
2019-05-25T15:48:54.970Z,45.50
2019-05-25T15:51:23.600Z,45.70
2019-05-25T15:53:52.192Z,45.80
2019-05-25T15:56:21.176Z,46.10
2019-05-25T15:58:50.075Z,45.70
2019-05-25T16:01:18.689Z,45.60
2019-05-25T16:03:47.270Z,45.40
2019-05-25T16:06:15.847Z,45.60
2019-05-25T16:08:44.508Z,45.50
2019-05-25T16:11:13.246Z,45.10
2019-05-25T16:13:41.838Z,45.40
2019-05-25T16:16:10.457Z,45.50
2019-05-25T16:18:39.032Z,45.70
2019-05-25T16:21:07.701Z,45.20
2019-05-25T16:23:36.276Z,45.40
2019-05-25T16:26:04.990Z,45.30
2019-05-25T16:28:33.632Z,45.10
2019-05-25T16:31:02.195Z,44.80
2019-05-25T16:33:30.831Z,44.90
2019-05-25T16:35:59.753Z,44.80
2019-05-25T16:38:28.426Z,44.80
2019-05-25T16:40:57.451Z,44.80
2019-05-25T16:43:26.152Z,44.50
2019-05-25T16:45:54.801Z,44.30
2019-05-25T16:48:23.437Z,43.90
2019-05-25T16:50:52.019Z,43.70
2019-05-25T16:53:21.088Z,42.80
2019-05-25T16:55:49.714Z,42.50
2019-05-25T16:58:18.362Z,42.40
2019-05-25T17:00:46.948Z,42.00
2019-05-25T17:03:27.455Z,42.10
2019-05-25T17:05:45.845Z,41.80
2019-05-25T17:08:14.542Z,41.10
2019-05-25T17:10:43.570Z,41.00
2019-05-25T17:13:12.205Z,40.80
2019-05-25T17:15:40.826Z,40.20
2019-05-25T17:18:09.394Z,39.50
2019-05-25T17:20:38.061Z,39.70
2019-05-25T17:23:06.643Z,39.30
2019-05-25T17:25:35.299Z,38.60
2019-05-25T17:28:03.995Z,37.50
2019-05-25T17:30:38.860Z,35.90
2019-05-25T17:33:07.596Z,34.50
2019-05-25T17:35:36.664Z,32.80
2019-05-25T17:38:05.759Z,31.60
2019-05-25T17:40:34.709Z,30.40
2019-05-25T17:43:03.328Z,29.50
2019-05-25T17:45:32.030Z,28.60
2019-05-25T17:48:00.938Z,27.70
2019-05-25T17:53:16.843Z,26.50
2019-05-25T17:55:45.434Z,26.00
2019-05-25T18:01:10.805Z,24.90
2019-05-25T18:03:39.416Z,24.40
2019-05-25T18:06:08.074Z,24.00
2019-05-25T18:08:36.946Z,23.80
2019-05-25T18:11:06.617Z,23.40
2019-05-25T18:13:35.263Z,23.10
2019-05-25T18:16:03.978Z,22.90
2019-05-25T18:18:32.544Z,22.50
2019-05-25T18:21:01.227Z,22.30
2019-05-25T18:23:30.131Z,22.00
2019-05-25T18:25:58.899Z,21.80
2019-05-25T18:28:27.529Z,21.60
2019-05-25T18:30:56.113Z,21.40
2019-05-25T18:33:24.699Z,21.20
2019-05-25T18:35:53.341Z,21.00
2019-05-25T18:38:22.008Z,20.80
2019-05-25T18:40:50.926Z,20.60
2019-05-25T18:43:19.603Z,20.40
2019-05-25T18:45:48.248Z,20.20
2019-05-25T18:48:16.833Z,20.00
2019-05-25T18:50:45.573Z,19.80
2019-05-25T18:53:14.719Z,19.70
2019-05-25T18:55:43.380Z,19.50
2019-05-25T18:58:11.987Z,19.40
2019-05-25T19:00:40.643Z,19.20
2019-05-25T19:03:09.353Z,19.10
2019-05-25T19:05:37.878Z,18.90
2019-05-25T19:08:06.426Z,18.80
2019-05-25T19:10:35.099Z,18.70
2019-05-25T19:13:04.041Z,18.50
2019-05-25T19:15:32.609Z,18.40
2019-05-25T19:18:01.178Z,18.30
2019-05-25T19:20:29.839Z,18.20
2019-05-25T19:22:58.391Z,18.10
2019-05-25T19:25:27.089Z,17.90
2019-05-25T19:27:55.675Z,17.80
2019-05-25T19:30:24.773Z,17.70
2019-05-25T19:32:53.334Z,17.50
2019-05-25T19:35:22.246Z,17.30
2019-05-25T19:37:50.945Z,17.20
2019-05-25T19:40:19.665Z,17.10
2019-05-25T19:42:50.024Z,16.80
2019-05-25T19:45:19.118Z,16.70
2019-05-25T19:47:47.737Z,16.60
2019-05-25T19:50:17.777Z,16.40
2019-05-25T19:52:46.444Z,16.30
2019-05-25T19:55:15.680Z,16.10
2019-05-25T19:57:45.318Z,16.00
2019-05-25T20:00:14.933Z,15.80
2019-05-25T20:02:43.530Z,15.60
2019-05-25T20:05:16.865Z,15.50
2019-05-25T20:07:42.692Z,15.40
2019-05-25T20:10:12.630Z,15.20
2019-05-25T20:12:41.242Z,15.10
2019-05-25T20:15:10.669Z,15.00
2019-05-25T20:17:39.696Z,14.80
2019-05-25T20:20:11.528Z,14.80
2019-05-25T20:22:40.172Z,14.60
2019-05-25T20:25:08.890Z,14.50
2019-05-25T20:27:37.530Z,14.40
2019-05-25T20:30:07.616Z,14.30
2019-05-25T20:32:36.224Z,14.30
2019-05-25T20:35:06.649Z,14.10
2019-05-25T20:37:35.316Z,14.10
2019-05-25T20:40:05.763Z,14.00
2019-05-25T20:42:34.685Z,13.90
2019-05-25T20:45:03.543Z,13.80
2019-05-25T20:47:32.156Z,13.80
2019-05-25T20:50:00.721Z,13.70
2019-05-25T20:52:29.372Z,13.60
2019-05-25T20:54:57.969Z,13.50
2019-05-25T20:57:26.541Z,13.50
2019-05-25T20:59:55.206Z,13.40
2019-05-25T21:02:23.856Z,13.30
2019-05-25T21:04:52.448Z,13.30
2019-05-25T21:07:21.385Z,13.20
2019-05-25T21:09:50.276Z,13.20
2019-05-25T21:12:19.305Z,13.10
2019-05-25T21:14:47.873Z,13.00
2019-05-25T21:17:16.442Z,13.00
2019-05-25T21:19:45.021Z,12.90
2019-05-25T21:22:13.587Z,12.80
2019-05-25T21:24:42.152Z,12.80
2019-05-25T21:27:10.758Z,12.70
2019-05-25T21:29:39.345Z,12.60
2019-05-25T21:32:07.918Z,12.60
2019-05-25T21:34:36.495Z,12.60
2019-05-25T21:37:05.094Z,12.50
2019-05-25T21:39:33.667Z,12.50
2019-05-25T21:42:02.406Z,12.40
2019-05-25T21:44:30.972Z,12.40
2019-05-25T21:46:59.572Z,12.30
2019-05-25T21:49:28.248Z,12.30
2019-05-25T21:51:56.910Z,12.30
2019-05-25T21:54:25.510Z,12.20
2019-05-25T21:56:54.144Z,12.20
2019-05-25T21:59:22.757Z,12.10
2019-05-25T22:01:51.512Z,12.10
2019-05-25T22:04:20.172Z,12.10
2019-05-25T22:06:48.761Z,12.10
2019-05-25T22:09:17.404Z,12.10
2019-05-25T22:11:46.133Z,12.10
2019-05-25T22:14:14.722Z,12.10
2019-05-25T22:16:43.413Z,12.00
2019-05-25T22:19:12.043Z,12.10
2019-05-25T22:21:40.630Z,12.00
2019-05-25T22:24:09.200Z,12.10
2019-05-25T22:26:37.954Z,12.10
2019-05-25T22:29:06.570Z,12.10
2019-05-25T22:31:35.137Z,12.10
2019-05-25T22:34:03.795Z,12.00
2019-05-25T22:36:40.219Z,12.00
2019-05-25T22:39:03.174Z,12.00
2019-05-25T22:41:31.759Z,12.00
2019-05-25T22:44:00.360Z,12.00
2019-05-25T22:46:29.195Z,12.00
2019-05-25T22:48:57.857Z,12.00
2019-05-25T22:51:26.785Z,12.00
2019-05-25T22:53:55.619Z,12.00
2019-05-25T22:56:24.201Z,11.90
2019-05-25T22:58:52.705Z,11.90
2019-05-25T23:01:21.285Z,11.90
2019-05-25T23:03:50.144Z,11.80
2019-05-25T23:06:19.151Z,11.90
2019-05-25T23:08:47.722Z,11.80
2019-05-25T23:11:16.608Z,11.80
2019-05-25T23:13:45.191Z,11.70
2019-05-25T23:16:13.773Z,11.70
2019-05-25T23:18:42.414Z,11.70
2019-05-25T23:21:11.046Z,11.70
2019-05-25T23:23:39.718Z,11.70
2019-05-25T23:26:08.411Z,11.70
2019-05-25T23:28:36.925Z,11.70
2019-05-25T23:31:05.501Z,11.60
2019-05-25T23:33:34.091Z,11.60
2019-05-25T23:36:02.661Z,11.60
2019-05-25T23:38:31.349Z,11.50
2019-05-25T23:40:59.997Z,11.50
2019-05-25T23:43:28.605Z,11.50
2019-05-25T23:45:57.175Z,11.50
2019-05-25T23:48:25.734Z,11.50
2019-05-25T23:50:54.313Z,11.60
2019-05-25T23:53:22.959Z,11.60
2019-05-25T23:55:51.653Z,11.70
2019-05-25T23:58:20.257Z,11.80
